createdAt,value
2022-09-04T00:02:21.420Z,4.67
2022-09-04T00:05:43.516Z,4.10
2022-09-04T00:08:51.004Z,4.70
2022-09-04T00:12:04.368Z,4.53
2022-09-04T00:15:17.339Z,4.73
2022-09-04T00:18:27.110Z,4.40
2022-09-04T00:21:38.153Z,4.87
2022-09-04T00:24:44.622Z,4.47
2022-09-04T00:27:50.320Z,4.80
2022-09-04T00:31:02.098Z,4.47
2022-09-04T00:34:17.527Z,4.97
2022-09-04T00:37:26.089Z,4.63
2022-09-04T00:40:56.717Z,5.17
2022-09-04T00:44:18.377Z,4.20
2022-09-04T00:47:57.569Z,4.63
2022-09-04T00:51:30.848Z,4.77
2022-09-04T00:54:54.639Z,4.40
2022-09-04T00:58:26.326Z,4.90
2022-09-04T01:01:28.554Z,4.93
2022-09-04T01:05:27.701Z,4.80
2022-09-04T01:08:50.125Z,4.40
2022-09-04T01:12:10.525Z,4.80
2022-09-04T01:15:27.954Z,4.60
2022-09-04T01:18:56.293Z,4.80
2022-09-04T01:22:36.431Z,4.80
2022-09-04T01:26:11.906Z,4.60
2022-09-04T01:29:35.637Z,4.50
2022-09-04T01:32:55.804Z,4.60
2022-09-04T01:36:19.509Z,4.30
2022-09-04T01:39:24.654Z,4.50
2022-09-04T01:42:45.978Z,4.67
2022-09-04T01:46:05.636Z,4.73
2022-09-04T01:49:07.030Z,4.27
2022-09-04T01:52:29.981Z,4.43
2022-09-04T01:55:43.286Z,4.40
2022-09-04T01:58:55.869Z,5.23
2022-09-04T02:02:25.532Z,4.60
2022-09-04T02:05:36.802Z,4.63
2022-09-04T02:08:47.250Z,5.50
2022-09-04T02:12:03.140Z,5.23
2022-09-04T02:15:29.470Z,4.80
2022-09-04T02:18:56.981Z,4.30
2022-09-04T02:22:12.889Z,5.10
2022-09-04T02:25:24.098Z,4.73
2022-09-04T02:28:44.442Z,4.70
2022-09-04T02:32:03.157Z,4.20
2022-09-04T02:35:09.762Z,4.87
2022-09-04T02:38:25.073Z,4.50
2022-09-04T02:41:58.156Z,4.70
2022-09-04T02:45:32.181Z,5.37
2022-09-04T02:48:47.281Z,5.30
2022-09-04T02:52:15.726Z,5.17
2022-09-04T02:55:30.578Z,5.10
2022-09-04T02:58:53.108Z,4.90
2022-09-04T03:01:59.276Z,4.77
2022-09-04T03:05:22.441Z,4.60
2022-09-04T03:08:43.580Z,5.10
2022-09-04T03:12:29.025Z,5.10
2022-09-04T03:15:43.509Z,4.40
2022-09-04T03:19:12.436Z,4.63
2022-09-04T03:22:28.662Z,4.90
2022-09-04T03:25:43.896Z,4.67
2022-09-04T03:29:25.053Z,5.23
2022-09-04T03:32:34.978Z,4.67
2022-09-04T03:36:01.401Z,5.00
2022-09-04T03:39:11.897Z,4.70
2022-09-04T03:42:30.836Z,5.00
2022-09-04T03:45:42.581Z,4.77
2022-09-04T03:49:13.282Z,5.00
2022-09-04T03:53:00.893Z,5.17
2022-09-04T03:56:25.462Z,4.87
2022-09-04T03:59:46.245Z,5.30
2022-09-04T04:03:04.712Z,4.70
2022-09-04T04:06:19.796Z,4.90
2022-09-04T04:09:40.464Z,4.47
2022-09-04T04:12:49.821Z,4.63
2022-09-04T04:16:24.794Z,4.83
2022-09-04T04:19:42.166Z,5.10
2022-09-04T04:22:46.354Z,4.90
2022-09-04T04:26:05.709Z,5.03
2022-09-04T04:29:40.777Z,5.20
2022-09-04T04:33:09.702Z,4.83
2022-09-04T04:36:31.709Z,5.07
2022-09-04T04:39:59.839Z,4.80
2022-09-04T04:43:22.484Z,4.83
2022-09-04T04:46:44.797Z,4.73
2022-09-04T04:50:08.030Z,4.53
2022-09-04T04:53:29.135Z,4.90
2022-09-04T04:57:05.034Z,4.53
2022-09-04T05:00:22.836Z,4.80
2022-09-04T05:04:06.725Z,4.93
2022-09-04T05:07:22.438Z,4.07
2022-09-04T05:10:33.367Z,4.33
2022-09-04T05:13:53.506Z,4.23
2022-09-04T05:17:13.563Z,4.20
2022-09-04T05:20:17.851Z,3.87
2022-09-04T05:23:28.719Z,4.03
2022-09-04T05:26:43.891Z,3.90
2022-09-04T05:29:56.836Z,4.20
2022-09-04T05:33:10.458Z,4.97
2022-09-04T05:36:37.392Z,5.60
2022-09-04T05:39:39.079Z,5.10
2022-09-04T05:42:53.688Z,5.77
2022-09-04T05:46:23.163Z,5.53
2022-09-04T05:49:32.988Z,5.97
2022-09-04T05:53:04.542Z,6.10
2022-09-04T05:56:43.190Z,5.27
2022-09-04T06:00:02.618Z,5.53
2022-09-04T06:03:30.229Z,5.37
2022-09-04T06:07:09.244Z,5.53
2022-09-04T06:10:28.268Z,5.03
2022-09-04T06:13:46.524Z,5.20
2022-09-04T06:17:06.345Z,4.67
2022-09-04T06:20:34.485Z,5.13
2022-09-04T06:24:15.813Z,5.27
2022-09-04T06:27:57.074Z,5.97
2022-09-04T06:31:27.601Z,5.10
2022-09-04T06:34:51.914Z,5.00
2022-09-04T06:38:09.415Z,4.70
2022-09-04T06:41:52.950Z,4.90
2022-09-04T06:45:12.124Z,5.43
2022-09-04T06:48:42.187Z,5.47
2022-09-04T06:51:59.685Z,5.00
2022-09-04T06:55:30.797Z,5.00
2022-09-04T06:58:56.044Z,4.70
2022-09-04T07:02:28.702Z,5.27
2022-09-04T07:05:42.909Z,4.83
2022-09-04T07:09:16.956Z,4.70
2022-09-04T07:12:48.029Z,5.10
2022-09-04T07:16:15.776Z,5.37
2022-09-04T07:19:42.226Z,5.30
2022-09-04T07:22:56.124Z,5.60
2022-09-04T07:26:04.748Z,5.10
2022-09-04T07:29:30.570Z,4.90
2022-09-04T07:32:44.512Z,5.13
2022-09-04T07:35:55.828Z,5.23
2022-09-04T07:39:13.993Z,4.83
2022-09-04T07:42:30.971Z,5.10
2022-09-04T07:45:47.295Z,5.20
2022-09-04T07:49:02.821Z,5.30
2022-09-04T07:52:13.815Z,5.33
2022-09-04T07:55:51.998Z,4.10
2022-09-04T07:59:09.093Z,4.47
2022-09-04T08:02:31.963Z,3.97
2022-09-04T08:05:41.103Z,4.80
2022-09-04T08:09:19.365Z,5.40
2022-09-04T08:12:48.729Z,5.43
2022-09-04T08:16:07.054Z,5.03
2022-09-04T08:19:21.153Z,4.87
2022-09-04T08:22:37.701Z,5.63
2022-09-04T08:25:59.794Z,5.57
2022-09-04T08:29:24.358Z,5.50
2022-09-04T08:32:41.830Z,4.80
2022-09-04T08:36:42.052Z,5.50
2022-09-04T08:39:46.190Z,4.80
2022-09-04T08:43:03.940Z,5.30
2022-09-04T08:46:28.337Z,4.90
2022-09-04T08:50:08.345Z,4.80
2022-09-04T08:53:25.757Z,4.77
2022-09-04T08:56:37.540Z,4.40
2022-09-04T09:00:01.832Z,4.60
2022-09-04T09:03:42.384Z,4.93
2022-09-04T09:07:06.530Z,4.00
2022-09-04T09:10:37.474Z,3.67
2022-09-04T09:14:13.561Z,4.40
2022-09-04T09:17:39.628Z,4.00
2022-09-04T09:20:56.272Z,4.27
2022-09-04T09:24:21.718Z,3.70
2022-09-04T09:27:41.145Z,3.90
2022-09-04T09:31:05.267Z,4.03
2022-09-04T09:34:11.298Z,3.23
2022-09-04T09:37:50.438Z,3.83
2022-09-04T09:41:11.727Z,3.90
2022-09-04T09:44:25.793Z,3.70
2022-09-04T09:48:09.768Z,3.53
2022-09-04T09:51:40.300Z,2.90
2022-09-04T09:55:18.885Z,3.70
2022-09-04T09:58:51.284Z,3.13
2022-09-04T10:02:14.235Z,3.00
2022-09-04T10:05:40.356Z,2.80
2022-09-04T10:09:09.768Z,2.80
2022-09-04T10:12:50.138Z,2.43
2022-09-04T10:16:03.772Z,2.70
2022-09-04T10:19:43.119Z,2.33
2022-09-04T10:23:06.353Z,2.40
2022-09-04T10:26:57.394Z,2.37
2022-09-04T10:30:16.507Z,2.10
2022-09-04T10:33:32.632Z,2.20
2022-09-04T10:37:06.867Z,2.33
2022-09-04T10:40:45.298Z,2.50
2022-09-04T10:44:28.345Z,2.00
2022-09-04T10:47:44.866Z,2.03
2022-09-04T10:51:11.818Z,1.70
2022-09-04T10:54:48.036Z,2.00
2022-09-04T10:58:10.802Z,2.55
2022-09-04T11:01:41.047Z,2.10
2022-09-04T11:05:15.568Z,1.50
2022-09-04T11:09:02.007Z,1.60
2022-09-04T11:12:28.820Z,1.80
2022-09-04T11:16:00.064Z,1.77
2022-09-04T11:19:28.721Z,1.97
2022-09-04T11:22:40.838Z,1.80
2022-09-04T11:26:10.049Z,2.10
2022-09-04T11:29:41.127Z,1.77
2022-09-04T11:33:00.862Z,1.83
2022-09-04T11:36:05.740Z,1.60
2022-09-04T11:39:38.193Z,1.80
2022-09-04T11:43:01.270Z,1.60
2022-09-04T11:46:21.569Z,2.08
2022-09-04T11:49:53.165Z,1.63
2022-09-04T11:53:08.029Z,1.60
2022-09-04T11:56:50.673Z,1.50
2022-09-04T12:00:12.335Z,1.42
2022-09-04T12:03:22.880Z,1.33
2022-09-04T12:06:43.725Z,1.58
2022-09-04T12:10:01.666Z,1.50
2022-09-04T12:13:15.779Z,1.33
2022-09-04T12:16:20.294Z,1.38
2022-09-04T12:19:43.300Z,1.50
2022-09-04T12:23:12.800Z,1.63
2022-09-04T12:26:55.139Z,1.50
2022-09-04T12:30:20.365Z,1.30
2022-09-04T12:34:05.985Z,1.40
2022-09-04T12:37:27.375Z,1.58
2022-09-04T12:40:31.768Z,1.60
2022-09-04T12:43:56.414Z,1.48
2022-09-04T12:47:33.072Z,1.30
2022-09-04T12:50:44.229Z,1.20
2022-09-04T12:54:08.954Z,1.40
2022-09-04T12:57:47.447Z,1.50
2022-09-04T13:01:15.234Z,1.40
2022-09-04T13:04:27.868Z,1.25
2022-09-04T13:07:34.084Z,1.30
2022-09-04T13:10:44.375Z,1.65
2022-09-04T13:14:09.114Z,1.52
2022-09-04T13:17:25.772Z,1.42
2022-09-04T13:20:50.267Z,1.60
2022-09-04T13:24:12.840Z,1.40
2022-09-04T13:27:49.088Z,1.30
2022-09-04T13:31:03.370Z,1.50
2022-09-04T13:34:07.872Z,1.30
2022-09-04T13:37:16.762Z,1.42
2022-09-04T13:40:54.830Z,1.27
2022-09-04T13:44:20.709Z,1.63
2022-09-04T13:47:32.140Z,1.50
2022-09-04T13:50:52.238Z,1.20
2022-09-04T13:54:06.628Z,1.38
2022-09-04T13:57:30.370Z,1.33
2022-09-04T14:00:35.034Z,1.40
2022-09-04T14:03:39.027Z,1.50
2022-09-04T14:06:40.601Z,1.70
2022-09-04T14:09:46.722Z,1.50
2022-09-04T14:13:00.302Z,1.42
2022-09-04T14:16:06.331Z,1.40
2022-09-04T14:19:32.013Z,1.38
2022-09-04T14:22:49.344Z,1.60
2022-09-04T14:26:16.993Z,1.60
2022-09-04T14:30:00.054Z,1.65
2022-09-04T14:33:40.323Z,1.55
2022-09-04T14:37:13.384Z,1.60
2022-09-04T14:40:20.197Z,1.50
2022-09-04T14:43:34.948Z,1.60
2022-09-04T14:46:39.023Z,1.48
2022-09-04T14:49:50.401Z,1.60
2022-09-04T14:53:03.675Z,1.67
2022-09-04T14:56:31.273Z,1.70
2022-09-04T14:59:43.458Z,1.70
2022-09-04T15:03:27.891Z,1.80
2022-09-04T15:06:49.246Z,1.55
2022-09-04T15:10:10.396Z,1.50
2022-09-04T15:13:35.221Z,1.77
2022-09-04T15:16:39.961Z,1.50
2022-09-04T15:19:51.784Z,1.58
2022-09-04T15:23:16.914Z,1.45
2022-09-04T15:26:39.490Z,1.67
2022-09-04T15:30:08.669Z,1.40
2022-09-04T15:33:19.903Z,1.65
2022-09-04T15:36:24.316Z,1.50
2022-09-04T15:39:53.850Z,1.70
2022-09-04T15:43:08.594Z,1.55
2022-09-04T15:46:20.986Z,1.80
2022-09-04T15:49:49.453Z,1.85
2022-09-04T15:53:00.530Z,1.60
2022-09-04T15:56:34.895Z,1.70
2022-09-04T15:59:47.748Z,1.90
2022-09-04T16:03:23.227Z,1.75
2022-09-04T16:06:32.830Z,1.80
2022-09-04T16:09:43.961Z,1.52
2022-09-04T16:12:56.450Z,1.65
2022-09-04T16:16:10.362Z,1.70
2022-09-04T16:19:38.225Z,1.88
2022-09-04T16:22:48.277Z,1.77
2022-09-04T16:25:50.766Z,1.67
2022-09-04T16:29:01.743Z,1.58
2022-09-04T16:32:07.966Z,1.70
2022-09-04T16:35:21.368Z,1.52
2022-09-04T16:38:32.155Z,1.80
2022-09-04T16:41:54.086Z,1.92
2022-09-04T16:45:09.977Z,1.60
2022-09-04T16:48:34.699Z,1.50
2022-09-04T16:51:58.272Z,1.52
2022-09-04T16:55:10.476Z,1.45
2022-09-04T16:58:20.512Z,1.60
2022-09-04T17:01:59.561Z,1.30
2022-09-04T17:05:28.737Z,1.38
2022-09-04T17:08:44.415Z,1.60
2022-09-04T17:11:55.773Z,1.48
2022-09-04T17:15:16.292Z,1.45
2022-09-04T17:18:23.037Z,1.40
2022-09-04T17:29:03.411Z,1.50
2022-09-04T17:29:04.171Z,1.58
2022-09-04T17:29:36.336Z,1.75
2022-09-04T17:39:50.822Z,1.73
2022-09-04T17:40:36.454Z,1.38
2022-09-04T17:41:35.709Z,1.45
2022-09-04T17:44:03.488Z,1.80
2022-09-04T17:47:11.449Z,1.50
2022-09-04T17:50:17.298Z,1.65
2022-09-04T17:53:38.184Z,1.77
2022-09-04T17:56:58.368Z,1.88
2022-09-04T18:00:06.493Z,1.70
2022-09-04T18:03:30.013Z,1.88
2022-09-04T18:06:39.053Z,1.73
2022-09-04T18:09:59.356Z,2.10
2022-09-04T18:13:37.036Z,2.33
2022-09-04T18:17:12.563Z,4.28
2022-09-04T18:20:37.396Z,7.00
2022-09-04T18:23:54.676Z,3.10
2022-09-04T18:27:08.215Z,2.47
2022-09-04T18:34:48.812Z,2.55
2022-09-04T18:37:16.261Z,4.03
2022-09-04T18:37:44.068Z,3.20
2022-09-04T18:43:45.028Z,6.07
2022-09-04T18:50:28.539Z,3.53
2022-09-04T18:50:36.246Z,2.70
2022-09-04T18:51:30.964Z,3.20
2022-09-04T18:54:41.832Z,2.67
2022-09-04T18:57:53.246Z,2.65
2022-09-04T19:01:08.746Z,2.70
2022-09-04T19:04:32.368Z,3.15
2022-09-04T19:07:48.892Z,3.55
2022-09-04T19:10:54.850Z,3.22
2022-09-04T19:14:15.295Z,3.55
2022-09-04T19:17:26.324Z,3.33
2022-09-04T19:20:38.422Z,3.55
2022-09-04T19:23:49.147Z,3.38
2022-09-04T19:26:54.478Z,4.00
2022-09-04T19:30:18.585Z,3.50
2022-09-04T19:33:32.272Z,3.63
2022-09-04T19:36:40.661Z,3.50
2022-09-04T19:45:54.699Z,3.63
2022-09-04T19:46:26.226Z,3.23
2022-09-04T19:46:44.239Z,3.40
2022-09-04T19:53:17.753Z,2.73
2022-09-04T19:53:38.615Z,3.10
2022-09-04T19:57:31.596Z,3.10
2022-09-04T20:00:42.716Z,3.60
2022-09-04T20:03:50.192Z,4.13
2022-09-04T20:06:59.166Z,3.70
2022-09-04T20:10:05.725Z,4.77
2022-09-04T20:13:38.636Z,6.27
2022-09-04T20:17:10.884Z,7.37
2022-09-04T20:20:25.953Z,8.40
2022-09-04T20:23:57.846Z,7.97
2022-09-04T20:27:09.609Z,8.33
2022-09-04T20:30:19.258Z,9.10
2022-09-04T20:33:25.281Z,9.57
2022-09-04T20:36:34.097Z,9.53
2022-09-04T20:39:43.785Z,9.20
2022-09-04T20:43:03.500Z,7.47
2022-09-04T20:52:41.233Z,5.30
2022-09-04T20:52:59.687Z,3.40
2022-09-04T20:53:30.125Z,3.37
2022-09-04T20:58:59.389Z,3.10
2022-09-04T21:03:10.861Z,2.90
2022-09-04T21:03:43.955Z,2.37
2022-09-04T21:07:10.316Z,2.57
2022-09-04T21:10:28.272Z,1.97
2022-09-04T21:13:50.812Z,2.70
2022-09-04T21:17:33.762Z,2.70
2022-09-04T21:21:00.874Z,2.50
2022-09-04T21:24:19.593Z,2.30
2022-09-04T21:27:42.918Z,2.40
2022-09-04T21:30:58.183Z,2.10
2022-09-04T21:34:31.058Z,2.30
2022-09-04T21:37:56.300Z,2.30
2022-09-04T21:41:00.809Z,1.90
2022-09-04T21:44:21.018Z,2.30
2022-09-04T21:47:44.857Z,2.50
2022-09-04T21:50:59.366Z,2.20
2022-09-04T21:56:21.438Z,2.27
2022-09-04T22:02:38.830Z,2.13
2022-09-04T22:02:40.618Z,2.17
2022-09-04T22:05:19.295Z,2.20
2022-09-04T22:13:30.678Z,2.17
2022-09-04T22:13:43.611Z,1.90
2022-09-04T22:15:37.521Z,2.30
2022-09-04T22:18:50.077Z,2.10
2022-09-04T22:22:05.470Z,2.30
2022-09-04T22:25:30.945Z,2.00
2022-09-04T22:28:55.629Z,2.00
2022-09-04T22:32:24.338Z,2.20
2022-09-04T22:35:36.121Z,2.27
2022-09-04T22:38:50.168Z,2.00
2022-09-04T22:42:20.582Z,2.30
2022-09-04T22:45:47.132Z,2.13
2022-09-04T22:49:26.177Z,2.20
2022-09-04T22:52:42.837Z,1.83
2022-09-04T22:56:22.798Z,2.20
2022-09-04T22:59:37.070Z,2.10
2022-09-04T23:09:03.098Z,2.20
2022-09-04T23:13:49.987Z,2.10
2022-09-04T23:14:19.180Z,2.00
2022-09-04T23:18:35.010Z,2.07
2022-09-04T23:26:36.605Z,2.40
2022-09-04T23:26:42.223Z,2.07
2022-09-04T23:28:55.013Z,2.27
2022-09-04T23:32:24.943Z,2.23
2022-09-04T23:35:48.322Z,2.27
2022-09-04T23:39:10.826Z,2.20
2022-09-04T23:42:39.107Z,2.80
2022-09-04T23:46:11.610Z,2.60
2022-09-04T23:49:51.650Z,3.33
2022-09-04T23:53:17.900Z,3.47
2022-09-04T23:56:47.843Z,3.20
